createdAt,value
2018-07-14T00:02:00.814Z,13.70
2018-07-14T00:04:28.073Z,13.70
2018-07-14T00:06:55.313Z,13.70
2018-07-14T00:09:22.577Z,13.60
2018-07-14T00:11:49.920Z,13.60
2018-07-14T00:14:17.265Z,13.70
2018-07-14T00:16:44.524Z,13.60
2018-07-14T00:19:11.767Z,13.60
2018-07-14T00:21:39.035Z,13.60
2018-07-14T00:24:06.369Z,13.60
2018-07-14T00:26:33.713Z,13.50
2018-07-14T00:29:00.996Z,13.50
2018-07-14T00:31:28.381Z,13.50
2018-07-14T00:33:55.644Z,13.50
2018-07-14T00:36:22.905Z,13.40
2018-07-14T00:38:50.264Z,13.40
2018-07-14T00:41:17.868Z,13.40
2018-07-14T00:43:45.173Z,13.40
2018-07-14T00:46:12.428Z,13.40
2018-07-14T00:48:39.708Z,13.40
2018-07-14T00:51:07.165Z,13.40
2018-07-14T00:53:34.486Z,13.40
2018-07-14T00:56:01.772Z,13.30
2018-07-14T00:58:29.232Z,13.30
2018-07-14T01:00:56.565Z,13.30
2018-07-14T01:03:23.807Z,13.30
2018-07-14T01:05:51.200Z,13.30
2018-07-14T01:08:18.498Z,13.30
2018-07-14T01:10:45.760Z,13.30
2018-07-14T01:13:12.995Z,13.30
2018-07-14T01:18:07.613Z,13.20
2018-07-14T01:20:35.221Z,13.20
2018-07-14T01:23:02.529Z,13.20
2018-07-14T01:25:29.834Z,13.20
2018-07-14T01:27:57.080Z,13.30
2018-07-14T01:30:24.333Z,13.30
2018-07-14T01:32:51.689Z,13.30
2018-07-14T01:35:18.970Z,13.30
2018-07-14T01:37:46.200Z,13.30
2018-07-14T01:40:13.497Z,13.40
2018-07-14T01:42:40.813Z,13.40
2018-07-14T01:45:08.410Z,13.40
2018-07-14T01:47:36.909Z,13.40
2018-07-14T01:50:04.267Z,13.40
2018-07-14T01:52:31.547Z,13.40
2018-07-14T01:54:58.823Z,13.50
2018-07-14T01:57:26.052Z,13.50
2018-07-14T01:59:53.345Z,13.50
2018-07-14T02:02:20.649Z,13.50
2018-07-14T02:04:47.977Z,13.60
2018-07-14T02:07:15.282Z,13.60
2018-07-14T02:09:42.536Z,13.60
2018-07-14T02:12:09.831Z,13.70
2018-07-14T02:14:37.184Z,13.70
2018-07-14T02:17:04.538Z,13.70
2018-07-14T02:19:31.812Z,13.80
2018-07-14T02:21:59.049Z,13.90
2018-07-14T02:24:26.306Z,13.90
2018-07-14T02:26:53.643Z,14.00
2018-07-14T02:29:20.911Z,14.00
2018-07-14T02:31:48.136Z,14.00
2018-07-14T02:34:15.401Z,14.10
2018-07-14T02:36:42.721Z,14.10
2018-07-14T02:39:09.993Z,14.20
2018-07-14T02:41:37.326Z,14.10
2018-07-14T02:44:05.297Z,14.10
2018-07-14T02:46:32.603Z,14.10
2018-07-14T02:48:59.883Z,14.10
2018-07-14T02:51:27.390Z,14.10
2018-07-14T02:53:54.717Z,14.10
2018-07-14T02:56:22.009Z,14.10
2018-07-14T02:58:49.344Z,14.10
2018-07-14T03:01:16.657Z,14.10
2018-07-14T03:03:43.910Z,14.00
2018-07-14T03:06:11.209Z,14.00
2018-07-14T03:08:38.526Z,14.00
2018-07-14T03:11:05.916Z,14.10
2018-07-14T03:13:33.273Z,14.10
2018-07-14T03:16:00.537Z,14.20
2018-07-14T03:18:27.874Z,14.30
2018-07-14T03:20:55.185Z,14.40
2018-07-14T03:23:22.643Z,14.40
2018-07-14T03:25:50.001Z,14.50
2018-07-14T03:28:17.451Z,14.40
2018-07-14T03:30:45.196Z,14.40
2018-07-14T03:33:12.457Z,14.50
2018-07-14T03:35:39.716Z,14.50
2018-07-14T03:38:07.021Z,14.50
2018-07-14T03:40:34.324Z,14.50
2018-07-14T03:43:01.589Z,14.60
2018-07-14T03:45:28.873Z,14.70
2018-07-14T03:47:56.188Z,14.70
2018-07-14T03:50:30.245Z,14.80
2018-07-14T03:52:57.644Z,14.80
2018-07-14T03:55:24.817Z,14.80
2018-07-14T03:57:52.028Z,14.90
2018-07-14T04:00:19.268Z,15.00
2018-07-14T04:02:46.554Z,15.00
2018-07-14T04:05:13.809Z,14.90
2018-07-14T04:07:41.104Z,14.90
2018-07-14T04:10:08.413Z,15.10
2018-07-14T04:12:35.813Z,15.10
2018-07-14T04:15:03.132Z,15.10
2018-07-14T04:17:30.439Z,15.20
2018-07-14T04:19:57.761Z,15.20
2018-07-14T04:22:25.031Z,15.30
2018-07-14T04:24:52.325Z,15.40
2018-07-14T04:27:19.548Z,15.30
2018-07-14T04:29:46.800Z,15.30
2018-07-14T04:32:14.063Z,15.30
2018-07-14T04:34:41.291Z,15.40
2018-07-14T04:37:08.596Z,15.30
2018-07-14T04:39:35.926Z,15.40
2018-07-14T04:42:03.270Z,15.40
2018-07-14T04:46:57.762Z,15.50
2018-07-14T04:49:25.072Z,15.50
2018-07-14T04:54:26.420Z,15.50
2018-07-14T04:56:53.725Z,15.60
2018-07-14T04:59:20.972Z,15.70
2018-07-14T05:01:48.221Z,15.80
2018-07-14T05:04:15.632Z,15.80
2018-07-14T05:06:42.857Z,16.00
2018-07-14T05:09:10.146Z,16.00
2018-07-14T05:11:37.524Z,16.00
2018-07-14T05:14:04.887Z,16.00
2018-07-14T05:16:32.220Z,16.00
2018-07-14T05:18:59.477Z,15.90
2018-07-14T05:21:26.879Z,16.00
2018-07-14T05:23:54.033Z,16.00
2018-07-14T05:26:21.388Z,16.00
2018-07-14T05:28:48.717Z,16.20
2018-07-14T05:31:16.379Z,16.10
2018-07-14T05:33:43.711Z,16.20
2018-07-14T05:36:10.960Z,16.20
2018-07-14T05:38:38.260Z,16.30
2018-07-14T05:41:05.913Z,16.20
2018-07-14T05:43:33.218Z,16.40
2018-07-14T05:46:00.504Z,16.30
2018-07-14T05:48:27.822Z,16.30
2018-07-14T05:50:55.056Z,16.20
2018-07-14T05:53:22.364Z,16.20
2018-07-14T05:55:49.791Z,16.30
2018-07-14T05:58:17.036Z,16.40
2018-07-14T06:00:44.326Z,16.30
2018-07-14T06:03:11.643Z,16.20
2018-07-14T06:05:38.976Z,16.30
2018-07-14T06:08:06.461Z,16.50
2018-07-14T06:10:33.773Z,16.60
2018-07-14T06:13:01.103Z,16.60
2018-07-14T06:15:28.398Z,16.60
2018-07-14T06:17:55.748Z,16.80
2018-07-14T06:20:23.062Z,16.80
2018-07-14T06:22:50.365Z,17.00
2018-07-14T06:25:17.721Z,17.20
2018-07-14T06:27:45.140Z,17.30
2018-07-14T06:30:12.396Z,17.40
2018-07-14T06:32:40.053Z,17.30
2018-07-14T06:35:07.362Z,17.50
2018-07-14T06:37:35.268Z,17.10
2018-07-14T06:40:02.591Z,17.20
2018-07-14T06:42:29.918Z,17.40
2018-07-14T06:44:57.172Z,17.30
2018-07-14T06:47:24.428Z,17.40
2018-07-14T06:49:51.822Z,17.50
2018-07-14T06:52:19.140Z,17.40
2018-07-14T06:54:46.397Z,17.30
2018-07-14T06:57:13.261Z,17.10
2018-07-14T06:59:40.530Z,17.00
2018-07-14T07:02:07.833Z,16.80
2018-07-14T07:04:35.232Z,17.00
2018-07-14T07:07:02.511Z,17.00
2018-07-14T07:09:29.797Z,17.20
2018-07-14T07:11:57.143Z,17.40
2018-07-14T07:14:24.406Z,17.40
2018-07-14T07:16:51.774Z,17.30
2018-07-14T07:19:19.038Z,17.10
2018-07-14T07:21:46.313Z,17.20
2018-07-14T07:24:13.568Z,17.10
2018-07-14T07:26:40.834Z,17.00
2018-07-14T07:29:08.161Z,16.90
2018-07-14T07:31:35.634Z,16.80
2018-07-14T07:34:03.242Z,16.80
2018-07-14T07:36:30.801Z,16.70
2018-07-14T07:38:58.357Z,16.60
2018-07-14T07:41:25.649Z,16.50
2018-07-14T07:43:52.949Z,16.70
2018-07-14T07:46:20.310Z,16.70
2018-07-14T07:48:47.575Z,16.80
2018-07-14T07:51:14.861Z,17.00
2018-07-14T07:53:42.117Z,16.90
2018-07-14T07:56:09.436Z,17.00
2018-07-14T07:58:36.778Z,17.00
2018-07-14T08:01:22.113Z,17.20
2018-07-14T08:03:49.417Z,17.40
2018-07-14T08:06:16.705Z,17.60
2018-07-14T08:08:44.107Z,17.60
2018-07-14T08:11:11.380Z,17.20
2018-07-14T08:13:38.744Z,17.00
2018-07-14T08:16:06.139Z,17.10
2018-07-14T08:18:33.587Z,17.20
2018-07-14T08:21:00.915Z,17.20
2018-07-14T08:23:28.236Z,17.00
2018-07-14T08:25:55.540Z,17.10
2018-07-14T08:28:22.785Z,17.30
2018-07-14T08:30:50.089Z,17.00
2018-07-14T08:33:17.394Z,17.00
2018-07-14T08:35:45.791Z,17.00
2018-07-14T08:38:13.239Z,17.00
2018-07-14T08:40:40.591Z,17.30
2018-07-14T08:43:07.939Z,17.30
2018-07-14T08:45:35.384Z,17.30
2018-07-14T08:48:02.845Z,17.70
2018-07-14T08:50:30.196Z,17.80
2018-07-14T08:52:57.448Z,18.40
2018-07-14T08:55:24.716Z,18.00
2018-07-14T08:57:52.068Z,18.20
2018-07-14T09:00:19.380Z,18.50
2018-07-14T09:02:46.674Z,18.80
2018-07-14T09:05:13.925Z,18.80
2018-07-14T09:07:41.153Z,18.70
2018-07-14T09:10:08.541Z,19.20
2018-07-14T09:12:35.988Z,20.00
2018-07-14T09:15:03.298Z,20.40
2018-07-14T09:17:30.591Z,20.50
2018-07-14T09:19:57.870Z,20.40
2018-07-14T09:22:25.180Z,20.30
2018-07-14T09:24:52.566Z,19.90
2018-07-14T09:27:19.819Z,20.50
2018-07-14T09:29:47.105Z,20.20
2018-07-14T09:32:14.519Z,20.20
2018-07-14T09:34:41.769Z,20.30
2018-07-14T09:37:09.045Z,20.50
2018-07-14T09:39:36.390Z,20.10
2018-07-14T09:42:03.696Z,19.80
2018-07-14T09:44:31.095Z,19.60
2018-07-14T09:46:58.497Z,20.00
2018-07-14T09:49:26.442Z,20.70
2018-07-14T09:51:53.851Z,20.80
2018-07-14T09:54:21.469Z,21.10
2018-07-14T09:56:48.789Z,21.20
2018-07-14T09:59:16.119Z,20.80
2018-07-14T10:01:43.501Z,21.10
2018-07-14T10:04:10.901Z,21.70
2018-07-14T10:06:38.461Z,22.20
2018-07-14T10:09:06.234Z,21.80
2018-07-14T10:11:33.589Z,21.30
2018-07-14T10:14:00.939Z,20.80
2018-07-14T10:16:28.242Z,20.80
2018-07-14T10:18:55.695Z,20.60
2018-07-14T10:21:22.994Z,20.80
2018-07-14T10:23:50.278Z,20.90
2018-07-14T10:26:17.863Z,20.40
2018-07-14T10:28:45.169Z,19.80
2018-07-14T10:31:12.469Z,19.40
2018-07-14T10:33:39.872Z,19.50
2018-07-14T10:36:07.192Z,19.60
2018-07-14T10:38:34.599Z,19.40
2018-07-14T10:41:01.887Z,19.40
2018-07-14T10:43:29.233Z,19.30
2018-07-14T10:45:56.542Z,19.20
2018-07-14T10:48:23.837Z,19.10
2018-07-14T10:50:51.209Z,19.30
2018-07-14T10:53:18.501Z,19.40
2018-07-14T10:55:45.831Z,19.80
2018-07-14T10:58:13.526Z,19.80
2018-07-14T11:00:40.870Z,19.70
2018-07-14T11:03:07.609Z,20.00
2018-07-14T11:05:34.400Z,20.10
2018-07-14T11:08:01.234Z,20.00
2018-07-14T11:10:28.026Z,19.50
2018-07-14T11:12:55.430Z,19.40
2018-07-14T11:15:22.921Z,19.40
2018-07-14T11:17:50.217Z,19.20
2018-07-14T11:20:17.499Z,19.10
2018-07-14T11:22:44.825Z,19.00
2018-07-14T11:25:12.062Z,18.80
2018-07-14T11:27:39.461Z,18.70
2018-07-14T11:30:06.925Z,18.80
2018-07-14T11:32:34.216Z,19.10
2018-07-14T11:35:01.506Z,18.90
2018-07-14T11:37:28.776Z,19.10
2018-07-14T11:39:56.078Z,19.50
2018-07-14T11:42:23.691Z,19.20
2018-07-14T11:44:50.991Z,19.40
2018-07-14T11:47:18.257Z,19.50
2018-07-14T11:49:45.534Z,19.20
2018-07-14T11:52:12.801Z,19.40
2018-07-14T11:54:40.113Z,19.50
2018-07-14T11:57:07.496Z,19.80
2018-07-14T11:59:34.874Z,20.00
2018-07-14T12:02:02.263Z,20.10
2018-07-14T12:04:29.520Z,20.50
2018-07-14T12:06:56.928Z,20.70
2018-07-14T12:09:24.252Z,20.60
2018-07-14T12:11:51.688Z,20.50
2018-07-14T12:14:18.960Z,20.70
2018-07-14T12:16:46.244Z,21.60
2018-07-14T12:19:13.568Z,21.50
2018-07-14T12:21:40.885Z,21.80
2018-07-14T12:24:08.210Z,22.00
2018-07-14T12:26:35.533Z,22.40
2018-07-14T12:29:02.880Z,21.80
2018-07-14T12:31:30.216Z,22.60
2018-07-14T12:33:57.760Z,23.00
2018-07-14T12:36:25.456Z,22.90
2018-07-14T12:38:52.852Z,22.80
2018-07-14T12:41:20.147Z,23.40
2018-07-14T12:43:47.463Z,22.70
2018-07-14T12:46:14.777Z,23.50
2018-07-14T12:48:42.121Z,24.20
2018-07-14T12:51:08.925Z,23.00
2018-07-14T12:53:35.838Z,22.40
2018-07-14T12:56:02.624Z,21.40
2018-07-14T12:58:29.391Z,21.50
2018-07-14T13:00:56.440Z,21.40
2018-07-14T13:03:23.180Z,21.30
2018-07-14T13:05:50.075Z,21.20
2018-07-14T13:08:17.353Z,21.20
2018-07-14T13:10:44.640Z,21.20
2018-07-14T13:13:11.893Z,21.20
2018-07-14T13:15:39.460Z,21.20
2018-07-14T13:18:06.873Z,21.50
2018-07-14T13:20:34.190Z,21.30
2018-07-14T13:23:01.472Z,21.20
2018-07-14T13:25:29.527Z,21.00
2018-07-14T13:27:56.778Z,20.90
2018-07-14T13:30:24.053Z,20.70
2018-07-14T13:32:51.534Z,20.70
2018-07-14T13:35:18.791Z,20.60
2018-07-14T13:37:46.070Z,21.00
2018-07-14T13:40:13.410Z,21.30
2018-07-14T13:42:40.720Z,21.60
2018-07-14T13:45:08.048Z,21.30
2018-07-14T13:47:35.396Z,21.50
2018-07-14T13:50:02.199Z,21.40
2018-07-14T13:52:29.017Z,21.90
2018-07-14T13:54:55.901Z,21.90
2018-07-14T13:57:22.867Z,21.70
2018-07-14T13:59:49.640Z,21.40
2018-07-14T14:02:16.392Z,22.20
2018-07-14T14:04:43.165Z,22.30
2018-07-14T14:07:09.934Z,21.90
2018-07-14T14:09:36.769Z,21.80
2018-07-14T14:12:03.549Z,21.50
2018-07-14T14:14:30.256Z,21.80
2018-07-14T14:16:57.028Z,21.40
2018-07-14T14:19:24.118Z,22.00
2018-07-14T14:21:50.932Z,22.00
2018-07-14T14:24:17.769Z,22.00
2018-07-14T14:26:44.545Z,22.20
2018-07-14T14:29:11.303Z,22.30
2018-07-14T14:31:38.143Z,22.20
2018-07-14T14:34:04.966Z,22.70
2018-07-14T14:36:31.748Z,23.30
2018-07-14T14:38:59.019Z,22.80
2018-07-14T14:41:25.819Z,23.80
2018-07-14T14:43:52.619Z,22.50
2018-07-14T14:46:19.400Z,22.10
2018-07-14T14:48:46.178Z,21.80
2018-07-14T14:51:13.062Z,22.20
2018-07-14T14:53:39.876Z,22.50
2018-07-14T14:56:06.731Z,22.70
2018-07-14T14:58:34.065Z,22.70
2018-07-14T15:01:00.917Z,22.60
2018-07-14T15:03:27.758Z,22.40
2018-07-14T15:05:55.062Z,22.10
2018-07-14T15:08:22.454Z,21.80
2018-07-14T15:10:49.774Z,22.20
2018-07-14T15:13:17.130Z,22.40
2018-07-14T15:15:44.486Z,22.10
2018-07-14T15:18:11.810Z,21.50
2018-07-14T15:20:39.127Z,21.50
2018-07-14T15:23:06.574Z,21.40
2018-07-14T15:25:33.900Z,21.60
2018-07-14T15:28:01.200Z,23.40
2018-07-14T15:30:28.511Z,23.70
2018-07-14T15:32:55.892Z,23.30
2018-07-14T15:35:23.086Z,23.10
2018-07-14T15:37:50.451Z,22.30
2018-07-14T15:40:17.653Z,22.00
2018-07-14T15:42:44.925Z,21.80
2018-07-14T15:45:12.229Z,21.40
2018-07-14T15:50:07.036Z,20.90
2018-07-14T15:52:34.938Z,20.70
2018-07-14T15:55:02.231Z,20.90
2018-07-14T15:57:29.691Z,20.90
2018-07-14T16:01:51.774Z,20.60
2018-07-14T16:04:19.056Z,20.50
2018-07-14T16:06:46.380Z,20.50
2018-07-14T16:09:13.680Z,20.50
2018-07-14T16:11:40.942Z,20.50
2018-07-14T16:14:08.297Z,20.60
2018-07-14T16:16:35.594Z,20.50
2018-07-14T16:19:02.949Z,20.70
2018-07-14T16:21:30.240Z,20.60
2018-07-14T16:23:57.519Z,20.40
2018-07-14T16:26:24.918Z,20.60
2018-07-14T16:28:52.269Z,20.60
2018-07-14T16:31:19.584Z,20.40
2018-07-14T16:33:46.872Z,20.60
2018-07-14T16:36:14.335Z,20.30
2018-07-14T16:38:41.753Z,20.40
2018-07-14T16:43:36.687Z,20.20
2018-07-14T16:46:04.114Z,20.30
2018-07-14T16:48:31.860Z,20.10
2018-07-14T16:50:59.663Z,19.90
2018-07-14T16:53:26.992Z,19.90
2018-07-14T16:55:54.315Z,19.80
2018-07-14T16:58:22.553Z,19.90
2018-07-14T17:00:50.029Z,20.20
2018-07-14T17:03:17.392Z,20.30
2018-07-14T17:05:44.688Z,20.20
2018-07-14T17:08:11.996Z,20.20
2018-07-14T17:10:39.537Z,20.00
2018-07-14T17:13:06.913Z,19.80
2018-07-14T17:15:34.281Z,19.90
2018-07-14T17:18:01.718Z,19.90
2018-07-14T17:20:28.433Z,20.00
2018-07-14T17:22:55.203Z,19.80
2018-07-14T17:27:48.828Z,19.90
2018-07-14T17:30:15.566Z,20.00
2018-07-14T17:32:42.304Z,19.90
2018-07-14T17:35:09.078Z,19.90
2018-07-14T17:37:35.869Z,19.80
2018-07-14T17:40:02.663Z,19.80
2018-07-14T17:42:29.500Z,19.90
2018-07-14T17:44:56.266Z,19.80
2018-07-14T17:47:23.365Z,19.80
2018-07-14T17:49:50.128Z,19.90
2018-07-14T17:52:17.007Z,20.00
2018-07-14T17:54:43.719Z,20.00
2018-07-14T17:57:10.512Z,19.90
2018-07-14T17:59:37.722Z,20.10
2018-07-14T18:02:04.929Z,20.00
2018-07-14T18:04:31.672Z,19.50
2018-07-14T18:06:58.901Z,19.40
2018-07-14T18:09:26.141Z,19.40
2018-07-14T18:11:53.421Z,19.20
2018-07-14T18:14:20.754Z,19.10
2018-07-14T18:16:48.046Z,19.10
2018-07-14T18:19:15.345Z,19.10
2018-07-14T18:24:10.169Z,19.10
2018-07-14T18:26:37.517Z,19.10
2018-07-14T18:29:04.871Z,19.00
2018-07-14T18:31:32.194Z,19.10
2018-07-14T18:33:59.478Z,18.90
2018-07-14T18:36:26.856Z,18.90
2018-07-14T18:38:54.156Z,18.90
2018-07-14T18:41:21.432Z,18.90
2018-07-14T18:43:48.708Z,18.90
2018-07-14T18:46:16.193Z,18.80
2018-07-14T18:48:43.496Z,18.70
2018-07-14T18:51:10.745Z,18.80
2018-07-14T18:53:38.413Z,18.80
2018-07-14T18:56:05.759Z,18.90
2018-07-14T18:58:33.028Z,18.80
2018-07-14T19:01:00.320Z,18.80
2018-07-14T19:03:27.724Z,18.70
2018-07-14T19:05:55.074Z,18.60
2018-07-14T19:08:22.328Z,18.50
2018-07-14T19:10:49.589Z,18.40
2018-07-14T19:13:16.872Z,18.40
2018-07-14T19:15:45.060Z,18.30
2018-07-14T19:18:12.425Z,18.20
2018-07-14T19:20:39.655Z,18.20
2018-07-14T19:23:06.975Z,18.20
2018-07-14T19:25:34.212Z,18.10
2018-07-14T19:28:01.448Z,18.10
2018-07-14T19:30:28.725Z,18.10
2018-07-14T19:32:55.973Z,18.00
2018-07-14T19:35:23.226Z,18.00
2018-07-14T19:37:50.556Z,18.00
2018-07-14T19:40:17.831Z,17.90
2018-07-14T19:42:45.047Z,17.70
2018-07-14T19:45:12.336Z,17.70
2018-07-14T19:47:39.852Z,17.60
2018-07-14T19:50:10.381Z,17.50
2018-07-14T19:52:40.145Z,17.40
2018-07-14T19:55:08.323Z,17.30
2018-07-14T19:57:35.709Z,17.20
2018-07-14T20:00:03.387Z,17.10
2018-07-14T20:02:30.682Z,17.00
2018-07-14T20:05:17.743Z,16.90
2018-07-14T20:07:45.053Z,16.80
2018-07-14T20:10:12.442Z,16.70
2018-07-14T20:12:39.911Z,16.60
2018-07-14T20:15:07.224Z,16.60
2018-07-14T20:17:34.522Z,16.50
2018-07-14T20:20:01.819Z,16.40
2018-07-14T20:22:29.117Z,16.40
2018-07-14T20:24:56.404Z,16.30
2018-07-14T20:27:23.671Z,16.20
2018-07-14T20:29:51.014Z,16.20
2018-07-14T20:32:18.342Z,16.20
2018-07-14T20:34:45.635Z,16.10
2018-07-14T20:37:12.926Z,16.10
2018-07-14T20:39:40.664Z,16.00
2018-07-14T20:42:08.047Z,15.90
2018-07-14T20:44:35.412Z,15.90
2018-07-14T20:47:02.949Z,15.90
2018-07-14T20:49:30.200Z,15.80
2018-07-14T20:51:57.449Z,15.70
2018-07-14T20:54:24.716Z,15.70
2018-07-14T20:56:52.216Z,15.60
2018-07-14T20:59:19.516Z,15.60
2018-07-14T21:01:46.822Z,15.50
2018-07-14T21:04:14.093Z,15.50
2018-07-14T21:06:41.386Z,15.40
2018-07-14T21:11:36.011Z,15.30
2018-07-14T21:14:03.494Z,15.30
2018-07-14T21:16:30.805Z,15.20
2018-07-14T21:18:58.233Z,15.20
2018-07-14T21:21:25.609Z,15.10
2018-07-14T21:23:52.859Z,15.10
2018-07-14T21:26:20.295Z,15.10
2018-07-14T21:28:47.601Z,15.00
2018-07-14T21:31:14.854Z,15.00
2018-07-14T21:33:42.117Z,14.90
2018-07-14T21:36:09.362Z,14.80
2018-07-14T21:38:36.616Z,14.80
2018-07-14T21:41:03.909Z,14.80
2018-07-14T21:43:31.301Z,14.80
2018-07-14T21:45:58.564Z,14.70
2018-07-14T21:48:25.945Z,14.70
2018-07-14T21:50:53.177Z,14.70
2018-07-14T21:53:20.424Z,14.60
2018-07-14T21:55:47.729Z,14.60
2018-07-14T21:58:15.058Z,14.60
2018-07-14T22:00:54.733Z,14.50
2018-07-14T22:07:38.786Z,14.40
2018-07-14T22:10:06.185Z,14.40
2018-07-14T22:12:33.847Z,14.30
2018-07-14T22:15:01.364Z,14.40
2018-07-14T22:17:28.423Z,14.30
2018-07-14T22:19:55.705Z,14.30
2018-07-14T22:22:22.999Z,14.30
2018-07-14T22:24:50.272Z,14.30
2018-07-14T22:27:17.517Z,14.20
2018-07-14T22:29:44.786Z,14.20
2018-07-14T22:32:12.096Z,14.10
2018-07-14T22:34:39.387Z,14.10
2018-07-14T22:37:06.716Z,14.10
2018-07-14T22:39:33.990Z,14.00
2018-07-14T22:42:01.204Z,14.00
2018-07-14T22:44:28.798Z,14.00
2018-07-14T22:46:56.020Z,14.00
2018-07-14T22:49:23.228Z,13.90
2018-07-14T22:51:50.520Z,13.80
2018-07-14T22:54:17.718Z,13.80
2018-07-14T22:56:44.967Z,13.80
2018-07-14T22:59:12.270Z,13.80
2018-07-14T23:01:39.651Z,13.80
2018-07-14T23:04:06.907Z,13.70
2018-07-14T23:06:34.234Z,13.80
2018-07-14T23:09:01.459Z,13.70
2018-07-14T23:11:28.744Z,13.70
2018-07-14T23:13:56.022Z,13.70
2018-07-14T23:16:23.395Z,13.60
2018-07-14T23:18:50.750Z,13.60
2018-07-14T23:21:18.317Z,13.70
2018-07-14T23:23:45.946Z,13.60
2018-07-14T23:26:13.250Z,13.60
2018-07-14T23:28:40.517Z,13.60
2018-07-14T23:31:07.908Z,13.70
2018-07-14T23:33:35.221Z,13.70
2018-07-14T23:36:02.517Z,13.60
2018-07-14T23:38:29.788Z,13.60
2018-07-14T23:40:57.068Z,13.50
2018-07-14T23:43:24.320Z,13.50
2018-07-14T23:45:51.568Z,13.40
2018-07-14T23:48:19.294Z,13.40
2018-07-14T23:50:46.583Z,13.40
2018-07-14T23:53:13.840Z,13.30
2018-07-14T23:55:41.160Z,13.40
2018-07-14T23:58:08.509Z,13.40
